createdAt,value
2018-10-01T00:01:51.872Z,7.50
2018-10-01T00:04:19.522Z,7.50
2018-10-01T00:06:47.269Z,7.50
2018-10-01T00:09:14.898Z,7.40
2018-10-01T00:11:42.558Z,7.50
2018-10-01T00:14:10.190Z,7.40
2018-10-01T00:16:37.848Z,7.40
2018-10-01T00:19:11.277Z,7.40
2018-10-01T00:22:48.572Z,7.40
2018-10-01T00:25:16.796Z,7.30
2018-10-01T00:27:44.502Z,7.30
2018-10-01T00:30:12.323Z,7.30
2018-10-01T00:32:39.974Z,7.30
2018-10-01T00:35:07.823Z,7.20
2018-10-01T00:37:35.477Z,7.10
2018-10-01T00:40:03.146Z,7.00
2018-10-01T00:42:30.816Z,6.90
2018-10-01T00:44:58.548Z,6.90
2018-10-01T00:47:26.394Z,6.90
2018-10-01T00:49:54.270Z,6.90
2018-10-01T00:52:21.969Z,6.80
2018-10-01T00:54:49.650Z,6.70
2018-10-01T00:57:17.294Z,6.60
2018-10-01T00:59:44.995Z,6.50
2018-10-01T01:02:12.721Z,6.40
2018-10-01T01:04:40.496Z,6.40
2018-10-01T01:07:09.921Z,6.60
2018-10-01T01:09:37.566Z,6.70
2018-10-01T01:12:05.490Z,6.70
2018-10-01T01:14:33.161Z,6.70
2018-10-01T01:17:00.933Z,6.70
2018-10-01T01:19:28.602Z,6.70
2018-10-01T01:21:56.478Z,6.80
2018-10-01T01:24:24.161Z,6.80
2018-10-01T01:26:52.001Z,6.90
2018-10-01T01:29:19.737Z,6.90
2018-10-01T01:31:48.018Z,6.90
2018-10-01T01:34:35.696Z,6.90
2018-10-01T01:37:03.859Z,6.90
2018-10-01T01:39:31.512Z,6.90
2018-10-01T01:41:59.375Z,6.90
2018-10-01T01:44:27.116Z,6.90
2018-10-01T01:46:54.754Z,6.80
2018-10-01T01:49:22.518Z,6.80
2018-10-01T01:51:50.361Z,6.70
2018-10-01T01:54:18.038Z,6.70
2018-10-01T01:56:45.761Z,6.70
2018-10-01T01:59:13.686Z,6.70
2018-10-01T02:01:41.302Z,6.60
2018-10-01T02:04:09.062Z,6.60
2018-10-01T02:06:36.734Z,6.50
2018-10-01T02:09:07.360Z,6.50
2018-10-01T02:11:35.065Z,6.40
2018-10-01T02:14:02.745Z,6.40
2018-10-01T02:16:30.403Z,6.40
2018-10-01T02:18:58.082Z,6.30
2018-10-01T02:21:25.796Z,6.30
2018-10-01T02:23:53.440Z,6.10
2018-10-01T02:26:21.094Z,6.10
2018-10-01T02:28:48.778Z,6.00
2018-10-01T02:31:17.076Z,5.90
2018-10-01T02:33:44.789Z,5.80
2018-10-01T02:36:12.449Z,5.80
2018-10-01T02:38:40.136Z,5.80
2018-10-01T02:41:08.179Z,5.80
2018-10-01T02:43:35.898Z,5.80
2018-10-01T02:46:03.626Z,5.80
2018-10-01T02:48:31.434Z,5.80
2018-10-01T02:50:59.336Z,5.70
2018-10-01T02:53:32.737Z,5.60
2018-10-01T02:56:00.397Z,5.60
2018-10-01T02:58:28.088Z,5.60
2018-10-01T03:00:55.800Z,5.60
2018-10-01T03:03:37.309Z,5.60
2018-10-01T03:06:04.978Z,5.60
2018-10-01T03:08:32.603Z,5.50
2018-10-01T03:11:00.302Z,5.60
2018-10-01T03:13:27.956Z,5.60
2018-10-01T03:15:55.627Z,5.60
2018-10-01T03:18:23.285Z,5.70
2018-10-01T03:20:50.969Z,5.70
2018-10-01T03:23:18.991Z,5.70
2018-10-01T03:25:47.301Z,5.80
2018-10-01T03:28:15.471Z,6.00
2018-10-01T03:30:43.103Z,6.00
2018-10-01T03:33:10.767Z,6.10
2018-10-01T03:35:38.424Z,6.10
2018-10-01T03:38:06.167Z,6.10
2018-10-01T03:40:33.949Z,6.20
2018-10-01T03:43:02.376Z,6.20
2018-10-01T03:45:30.141Z,6.20
2018-10-01T03:47:57.836Z,6.10
2018-10-01T03:50:25.589Z,6.20
2018-10-01T03:52:53.341Z,6.00
2018-10-01T03:55:20.983Z,6.00
2018-10-01T03:57:48.667Z,6.00
2018-10-01T04:00:16.397Z,5.90
2018-10-01T04:02:44.139Z,5.90
2018-10-01T04:05:11.843Z,5.80
2018-10-01T04:07:39.897Z,5.80
2018-10-01T04:10:07.571Z,5.80
2018-10-01T04:12:35.214Z,6.00
2018-10-01T04:15:02.901Z,6.10
2018-10-01T04:17:30.736Z,6.20
2018-10-01T04:19:58.434Z,6.50
2018-10-01T04:22:32.288Z,6.70
2018-10-01T04:24:59.929Z,6.80
2018-10-01T04:27:27.557Z,6.90
2018-10-01T04:29:55.253Z,6.90
2018-10-01T04:32:22.931Z,6.90
2018-10-01T04:34:50.584Z,6.90
2018-10-01T04:37:18.207Z,7.00
2018-10-01T04:39:45.856Z,7.00
2018-10-01T04:42:13.544Z,7.00
2018-10-01T04:44:41.264Z,6.90
2018-10-01T04:47:09.054Z,6.80
2018-10-01T04:49:36.700Z,6.80
2018-10-01T04:52:04.374Z,6.80
2018-10-01T04:54:32.014Z,6.90
2018-10-01T04:56:59.701Z,7.00
2018-10-01T04:59:27.381Z,7.10
2018-10-01T05:01:55.028Z,7.10
2018-10-01T05:04:22.720Z,7.20
2018-10-01T05:06:50.412Z,7.40
2018-10-01T05:09:18.004Z,7.40
2018-10-01T05:11:45.666Z,7.40
2018-10-01T05:14:13.362Z,7.40
2018-10-01T05:16:41.052Z,7.30
2018-10-01T05:19:08.709Z,7.40
2018-10-01T05:21:36.434Z,7.40
2018-10-01T05:24:04.114Z,7.60
2018-10-01T05:26:31.899Z,7.70
2018-10-01T05:28:59.574Z,7.70
2018-10-01T05:31:27.219Z,7.80
2018-10-01T05:33:54.993Z,8.00
2018-10-01T05:36:22.647Z,8.20
2018-10-01T05:38:50.351Z,8.20
2018-10-01T05:41:18.078Z,8.20
2018-10-01T05:43:46.305Z,8.20
2018-10-01T05:46:13.977Z,8.30
2018-10-01T05:48:41.785Z,8.20
2018-10-01T05:51:09.525Z,8.40
2018-10-01T05:53:37.201Z,8.40
2018-10-01T05:56:05.842Z,8.50
2018-10-01T05:58:33.741Z,8.60
2018-10-01T06:01:01.397Z,8.60
2018-10-01T06:03:29.169Z,8.70
2018-10-01T06:05:56.831Z,8.70
2018-10-01T06:08:24.698Z,8.80
2018-10-01T06:10:52.432Z,8.80
2018-10-01T06:13:20.215Z,8.90
2018-10-01T06:15:48.603Z,8.80
2018-10-01T06:18:16.379Z,9.00
2018-10-01T06:20:44.150Z,8.90
2018-10-01T06:23:11.768Z,9.10
2018-10-01T06:25:39.608Z,9.30
2018-10-01T06:28:07.672Z,9.40
2018-10-01T06:30:35.344Z,9.30
2018-10-01T06:33:03.064Z,9.40
2018-10-01T06:35:30.812Z,9.50
2018-10-01T06:37:58.607Z,9.50
2018-10-01T06:40:26.399Z,9.30
2018-10-01T06:42:54.233Z,9.40
2018-10-01T06:45:22.022Z,9.60
2018-10-01T06:47:49.749Z,9.80
2018-10-01T06:50:17.352Z,9.80
2018-10-01T06:52:45.086Z,9.90
2018-10-01T06:55:12.859Z,9.90
2018-10-01T06:57:40.576Z,10.20
2018-10-01T07:00:08.989Z,10.40
2018-10-01T07:02:36.612Z,10.50
2018-10-01T07:05:04.334Z,10.50
2018-10-01T07:07:32.210Z,10.60
2018-10-01T07:09:59.862Z,10.70
2018-10-01T07:12:27.592Z,10.90
2018-10-01T07:14:55.369Z,11.20
2018-10-01T07:17:23.238Z,11.40
2018-10-01T07:19:50.771Z,11.30
2018-10-01T07:22:18.439Z,11.40
2018-10-01T07:24:46.136Z,11.60
2018-10-01T07:27:13.755Z,11.50
2018-10-01T07:29:41.522Z,11.30
2018-10-01T07:32:09.225Z,11.20
2018-10-01T07:34:36.894Z,10.90
2018-10-01T07:37:04.619Z,10.90
2018-10-01T07:39:32.407Z,11.10
2018-10-01T07:42:00.122Z,11.10
2018-10-01T07:44:27.820Z,11.30
2018-10-01T07:46:55.540Z,11.30
2018-10-01T07:49:23.300Z,11.50
2018-10-01T07:51:51.070Z,11.60
2018-10-01T07:54:18.775Z,11.60
2018-10-01T07:56:46.486Z,11.60
2018-10-01T07:59:14.206Z,11.80
2018-10-01T08:01:42.056Z,12.20
2018-10-01T08:04:10.004Z,12.60
2018-10-01T08:06:37.634Z,12.90
2018-10-01T08:09:08.501Z,13.30
2018-10-01T08:11:36.136Z,13.70
2018-10-01T08:14:04.071Z,13.50
2018-10-01T08:16:31.745Z,13.50
2018-10-01T08:18:59.400Z,13.40
2018-10-01T08:21:27.051Z,13.40
2018-10-01T08:23:54.910Z,13.60
2018-10-01T08:26:22.746Z,13.70
2018-10-01T08:28:50.411Z,13.70
2018-10-01T08:31:18.204Z,13.60
2018-10-01T08:33:45.826Z,13.20
2018-10-01T08:36:13.558Z,13.20
2018-10-01T08:38:41.373Z,13.60
2018-10-01T08:41:09.172Z,13.60
2018-10-01T08:43:36.878Z,13.90
2018-10-01T08:46:04.638Z,14.10
2018-10-01T08:48:34.773Z,14.10
2018-10-01T08:51:15.162Z,14.10
2018-10-01T08:53:48.513Z,13.90
2018-10-01T08:56:16.393Z,14.10
2018-10-01T08:58:44.057Z,14.10
2018-10-01T09:01:11.772Z,14.00
2018-10-01T09:03:39.464Z,14.10
2018-10-01T09:06:07.157Z,13.90
2018-10-01T09:08:34.941Z,13.40
2018-10-01T09:11:02.630Z,13.50
2018-10-01T09:13:30.397Z,13.60
2018-10-01T09:15:58.142Z,13.80
2018-10-01T09:18:26.029Z,13.90
2018-10-01T09:20:54.400Z,14.30
2018-10-01T09:23:22.153Z,14.60
2018-10-01T09:25:49.942Z,14.60
2018-10-01T09:28:17.584Z,14.70
2018-10-01T09:30:45.183Z,14.70
2018-10-01T09:33:12.817Z,14.80
2018-10-01T09:35:40.515Z,14.60
2018-10-01T09:38:08.242Z,15.30
2018-10-01T09:40:35.848Z,15.30
2018-10-01T09:43:03.682Z,15.00
2018-10-01T09:45:31.396Z,15.10
2018-10-01T09:47:59.417Z,15.40
2018-10-01T09:50:27.179Z,15.10
2018-10-01T09:52:55.192Z,15.20
2018-10-01T09:55:22.922Z,15.40
2018-10-01T09:57:50.734Z,15.30
2018-10-01T10:00:24.364Z,15.20
2018-10-01T10:02:52.186Z,15.60
2018-10-01T10:05:19.858Z,15.50
2018-10-01T10:07:47.544Z,15.30
2018-10-01T10:10:15.268Z,15.10
2018-10-01T10:12:42.894Z,15.40
2018-10-01T10:15:10.665Z,15.30
2018-10-01T10:17:38.334Z,15.00
2018-10-01T10:20:06.176Z,15.30
2018-10-01T10:22:34.088Z,15.40
2018-10-01T10:25:01.640Z,15.20
2018-10-01T10:27:29.328Z,15.10
2018-10-01T10:30:01.603Z,15.30
2018-10-01T10:32:29.394Z,15.30
2018-10-01T10:34:57.071Z,15.60
2018-10-01T10:37:24.816Z,15.20
2018-10-01T10:39:52.481Z,15.10
2018-10-01T10:42:20.233Z,15.00
2018-10-01T10:44:47.883Z,15.10
2018-10-01T10:47:15.596Z,15.30
2018-10-01T10:49:43.324Z,15.30
2018-10-01T10:52:11.028Z,15.40
2018-10-01T10:54:38.691Z,15.20
2018-10-01T10:57:06.433Z,15.00
2018-10-01T10:59:34.047Z,14.70
2018-10-01T11:02:01.722Z,14.50
2018-10-01T11:04:29.440Z,14.80
2018-10-01T11:06:57.141Z,15.10
2018-10-01T11:09:24.785Z,15.30
2018-10-01T11:11:52.556Z,15.70
2018-10-01T11:14:20.265Z,15.60
2018-10-01T11:16:47.828Z,15.20
2018-10-01T11:19:15.670Z,15.10
2018-10-01T11:21:43.537Z,15.20
2018-10-01T11:24:11.145Z,15.30
2018-10-01T11:26:38.783Z,15.00
2018-10-01T11:29:06.973Z,14.80
2018-10-01T11:31:34.581Z,14.90
2018-10-01T11:34:02.184Z,14.90
2018-10-01T11:36:29.903Z,15.10
2018-10-01T11:38:57.547Z,15.20
2018-10-01T11:41:25.325Z,15.30
2018-10-01T11:43:52.985Z,15.20
2018-10-01T11:46:20.693Z,15.00
2018-10-01T11:48:48.305Z,15.00
2018-10-01T11:51:16.020Z,15.10
2018-10-01T11:53:43.625Z,15.30
2018-10-01T11:56:11.294Z,15.50
2018-10-01T11:58:38.965Z,15.90
2018-10-01T12:01:06.678Z,15.90
2018-10-01T12:03:34.393Z,15.60
2018-10-01T12:06:02.018Z,15.00
2018-10-01T12:08:29.642Z,15.20
2018-10-01T12:10:57.275Z,15.20
2018-10-01T12:13:24.910Z,15.60
2018-10-01T12:15:52.697Z,15.40
2018-10-01T12:18:20.198Z,15.70
2018-10-01T12:20:47.858Z,16.10
2018-10-01T12:23:15.535Z,16.10
2018-10-01T12:25:43.116Z,16.30
2018-10-01T12:28:10.786Z,16.10
2018-10-01T12:30:38.468Z,16.10
2018-10-01T12:33:06.111Z,15.90
2018-10-01T12:35:33.954Z,15.70
2018-10-01T12:38:01.624Z,15.20
2018-10-01T12:40:29.259Z,14.80
2018-10-01T12:42:56.975Z,15.10
2018-10-01T12:45:24.685Z,15.60
2018-10-01T12:47:52.343Z,15.70
2018-10-01T12:50:20.029Z,15.60
2018-10-01T12:52:47.588Z,16.20
2018-10-01T12:55:15.254Z,16.20
2018-10-01T12:57:42.898Z,15.40
2018-10-01T13:00:10.551Z,15.60
2018-10-01T13:02:38.737Z,15.90
2018-10-01T13:05:06.520Z,16.30
2018-10-01T13:07:34.440Z,16.00
2018-10-01T13:10:02.143Z,16.00
2018-10-01T13:12:29.953Z,15.40
2018-10-01T13:14:57.911Z,15.20
2018-10-01T13:17:25.904Z,15.30
2018-10-01T13:19:54.098Z,15.40
2018-10-01T13:22:22.270Z,15.40
2018-10-01T13:24:50.330Z,15.20
2018-10-01T13:27:18.644Z,15.30
2018-10-01T13:29:48.075Z,15.00
2018-10-01T13:32:16.823Z,14.90
2018-10-01T13:34:44.467Z,14.70
2018-10-01T13:37:13.374Z,14.60
2018-10-01T13:39:41.344Z,14.60
2018-10-01T13:42:09.428Z,14.50
2018-10-01T13:44:38.196Z,14.40
2018-10-01T13:47:06.305Z,14.40
2018-10-01T13:49:34.370Z,14.10
2018-10-01T13:52:02.089Z,14.30
2018-10-01T13:54:29.831Z,13.80
2018-10-01T13:56:57.495Z,13.60
2018-10-01T13:59:25.834Z,13.50
2018-10-01T14:01:53.940Z,13.30
2018-10-01T14:04:21.597Z,13.30
2018-10-01T14:06:49.238Z,13.30
2018-10-01T14:09:17.117Z,13.30
2018-10-01T14:11:44.938Z,13.50
2018-10-01T14:14:12.679Z,13.70
2018-10-01T14:16:40.418Z,13.60
2018-10-01T14:19:08.097Z,13.60
2018-10-01T14:21:35.774Z,13.80
2018-10-01T14:24:03.874Z,13.70
2018-10-01T14:26:31.562Z,13.70
2018-10-01T14:28:59.181Z,13.80
2018-10-01T14:31:26.934Z,13.80
2018-10-01T14:33:54.620Z,13.60
2018-10-01T14:36:22.459Z,13.60
2018-10-01T14:38:50.223Z,13.60
2018-10-01T14:41:17.972Z,13.60
2018-10-01T14:43:45.645Z,13.60
2018-10-01T14:46:13.274Z,13.30
2018-10-01T14:48:41.040Z,13.40
2018-10-01T14:51:09.594Z,13.40
2018-10-01T14:53:37.279Z,13.30
2018-10-01T14:56:05.131Z,13.10
2018-10-01T14:58:32.828Z,12.80
2018-10-01T15:01:01.098Z,12.70
2018-10-01T15:03:28.696Z,12.50
2018-10-01T15:05:56.761Z,12.40
2018-10-01T15:08:24.982Z,12.30
2018-10-01T15:13:42.991Z,12.30
2018-10-01T15:16:10.912Z,12.20
2018-10-01T15:18:38.715Z,11.80
2018-10-01T15:21:06.851Z,11.80
2018-10-01T15:23:37.204Z,11.30
2018-10-01T15:26:05.000Z,10.90
2018-10-01T15:28:32.955Z,11.00
2018-10-01T15:31:00.691Z,11.00
2018-10-01T15:33:28.611Z,11.00
2018-10-01T15:35:56.709Z,10.80
2018-10-01T15:38:24.615Z,10.80
2018-10-01T15:40:52.450Z,10.70
2018-10-01T15:43:20.179Z,10.80
2018-10-01T15:45:48.181Z,10.80
2018-10-01T15:48:15.967Z,10.90
2018-10-01T15:50:43.817Z,10.80
2018-10-01T15:53:11.765Z,10.80
2018-10-01T15:55:39.707Z,10.90
2018-10-01T15:58:07.499Z,10.80
2018-10-01T16:00:35.161Z,10.90
2018-10-01T16:03:02.969Z,10.90
2018-10-01T16:05:30.630Z,10.80
2018-10-01T16:07:58.284Z,10.90
2018-10-01T16:10:26.051Z,11.00
2018-10-01T16:12:53.783Z,11.10
2018-10-01T16:15:21.490Z,10.90
2018-10-01T16:17:49.221Z,10.90
2018-10-01T16:20:16.934Z,10.90
2018-10-01T16:22:44.761Z,10.80
2018-10-01T16:25:12.493Z,10.70
2018-10-01T16:27:40.192Z,10.70
2018-10-01T16:30:08.356Z,10.70
2018-10-01T16:32:36.113Z,10.70
2018-10-01T16:35:03.870Z,10.70
2018-10-01T16:37:31.663Z,10.70
2018-10-01T16:39:59.414Z,10.70
2018-10-01T16:42:27.290Z,10.60
2018-10-01T16:44:55.138Z,10.70
2018-10-01T16:47:22.829Z,10.70
2018-10-01T16:49:50.626Z,10.70
2018-10-01T16:52:18.508Z,10.70
2018-10-01T16:54:46.349Z,10.70
2018-10-01T16:57:14.229Z,10.70
2018-10-01T16:59:42.133Z,10.70
2018-10-01T17:02:09.969Z,10.60
2018-10-01T17:04:37.809Z,10.60
2018-10-01T17:07:05.659Z,10.50
2018-10-01T17:09:33.852Z,10.50
2018-10-01T17:12:01.640Z,10.50
2018-10-01T17:14:29.484Z,10.40
2018-10-01T17:16:57.269Z,10.40
2018-10-01T17:19:25.333Z,10.30
2018-10-01T17:21:53.229Z,10.40
2018-10-01T17:24:21.271Z,10.40
2018-10-01T17:26:49.287Z,10.40
2018-10-01T17:29:17.309Z,10.30
2018-10-01T17:31:45.425Z,10.30
2018-10-01T17:34:13.339Z,10.30
2018-10-01T17:36:41.312Z,10.30
2018-10-01T17:39:09.635Z,10.20
2018-10-01T17:41:37.871Z,10.20
2018-10-01T17:44:05.683Z,10.30
2018-10-01T17:46:33.454Z,10.20
2018-10-01T17:49:01.117Z,10.20
2018-10-01T17:51:29.210Z,10.30
2018-10-01T17:53:56.873Z,10.30
2018-10-01T17:56:24.528Z,10.20
2018-10-01T17:58:52.287Z,10.30
2018-10-01T18:01:20.487Z,10.40
2018-10-01T18:03:49.978Z,10.40
2018-10-01T18:06:17.945Z,10.40
2018-10-01T18:08:45.863Z,10.40
2018-10-01T18:11:13.742Z,10.50
2018-10-01T18:13:41.591Z,10.50
2018-10-01T18:16:09.423Z,10.40
2018-10-01T18:18:37.103Z,10.40
2018-10-01T18:21:04.788Z,10.50
2018-10-01T18:23:32.610Z,10.50
2018-10-01T18:26:00.315Z,10.60
2018-10-01T18:28:28.019Z,10.50
2018-10-01T18:30:55.903Z,10.50
2018-10-01T18:33:23.551Z,10.50
2018-10-01T18:35:51.352Z,10.60
2018-10-01T18:38:19.966Z,10.50
2018-10-01T18:40:47.756Z,10.50
2018-10-01T18:43:15.478Z,10.40
2018-10-01T18:45:43.240Z,10.40
2018-10-01T18:48:11.022Z,10.30
2018-10-01T18:50:38.741Z,10.20
2018-10-01T18:53:06.880Z,10.20
2018-10-01T18:55:34.776Z,10.20
2018-10-01T18:58:02.473Z,10.10
2018-10-01T19:00:30.193Z,10.10
2018-10-01T19:02:57.909Z,10.10
2018-10-01T19:05:25.674Z,10.00
2018-10-01T19:07:53.388Z,10.00
2018-10-01T19:10:21.242Z,10.00
2018-10-01T19:12:49.014Z,10.10
2018-10-01T19:15:16.767Z,10.10
2018-10-01T19:17:44.481Z,10.10
2018-10-01T19:20:12.205Z,10.10
2018-10-01T19:22:39.873Z,10.00
2018-10-01T19:25:07.635Z,10.10
2018-10-01T19:27:35.373Z,10.10
2018-10-01T19:30:03.308Z,10.00
2018-10-01T19:32:31.055Z,10.00
2018-10-01T19:34:58.770Z,10.00
2018-10-01T19:37:26.875Z,10.00
2018-10-01T19:39:54.599Z,9.90
2018-10-01T19:42:22.361Z,9.80
2018-10-01T19:44:50.153Z,9.70
2018-10-01T19:47:17.900Z,9.70
2018-10-01T19:49:45.540Z,9.70
2018-10-01T19:52:13.795Z,9.60
2018-10-01T19:54:41.684Z,9.60
2018-10-01T19:57:09.536Z,9.60
2018-10-01T19:59:37.245Z,9.60
2018-10-01T20:02:05.204Z,9.70
2018-10-01T20:04:33.163Z,9.70
2018-10-01T20:07:00.877Z,9.60
2018-10-01T20:09:28.654Z,9.60
2018-10-01T20:11:56.454Z,9.60
2018-10-01T20:14:24.092Z,9.60
2018-10-01T20:16:51.874Z,9.70
2018-10-01T20:19:19.721Z,9.70
2018-10-01T20:21:47.408Z,9.70
2018-10-01T20:24:15.197Z,9.70
2018-10-01T20:26:43.095Z,9.70
2018-10-01T20:29:10.849Z,9.70
2018-10-01T20:31:38.536Z,9.80
2018-10-01T20:34:06.278Z,9.90
2018-10-01T20:36:34.107Z,9.80
2018-10-01T20:39:01.732Z,9.80
2018-10-01T20:41:29.443Z,9.80
2018-10-01T20:43:57.228Z,9.80
2018-10-01T20:46:25.032Z,9.70
2018-10-01T20:48:52.825Z,9.60
2018-10-01T20:51:20.532Z,9.70
2018-10-01T20:53:48.421Z,9.80
2018-10-01T20:56:16.275Z,9.70
2018-10-01T20:58:44.079Z,9.80
2018-10-01T21:01:11.993Z,9.80
2018-10-01T21:03:39.847Z,9.80
2018-10-01T21:06:07.541Z,9.80
2018-10-01T21:08:35.364Z,9.80
2018-10-01T21:11:02.966Z,9.70
2018-10-01T21:13:30.645Z,9.70
2018-10-01T21:15:58.372Z,9.80
2018-10-01T21:18:26.007Z,9.80
2018-10-01T21:20:53.666Z,9.70
2018-10-01T21:23:21.349Z,9.70
2018-10-01T21:25:49.013Z,9.60
2018-10-01T21:28:16.698Z,9.60
2018-10-01T21:30:44.483Z,9.70
2018-10-01T21:33:12.224Z,9.70
2018-10-01T21:35:39.921Z,9.80
2018-10-01T21:38:07.582Z,9.80
2018-10-01T21:40:35.250Z,9.60
2018-10-01T21:43:02.915Z,9.60
2018-10-01T21:45:30.580Z,9.60
2018-10-01T21:47:58.268Z,9.60
2018-10-01T21:50:25.928Z,9.60
2018-10-01T21:52:53.604Z,9.50
2018-10-01T21:55:21.258Z,9.50
2018-10-01T21:57:49.028Z,9.30
2018-10-01T22:00:16.801Z,9.20
2018-10-01T22:02:44.480Z,9.30
2018-10-01T22:05:12.288Z,9.20
2018-10-01T22:07:39.958Z,9.10
2018-10-01T22:10:07.678Z,9.00
2018-10-01T22:12:35.376Z,8.90
2018-10-01T22:15:03.112Z,8.90
2018-10-01T22:17:30.836Z,8.80
2018-10-01T22:19:58.534Z,8.80
2018-10-01T22:22:26.199Z,8.80
2018-10-01T22:24:54.019Z,8.80
2018-10-01T22:27:21.673Z,8.80
2018-10-01T22:29:49.423Z,8.90
2018-10-01T22:32:17.101Z,8.70
2018-10-01T22:34:44.721Z,8.80
2018-10-01T22:37:12.457Z,8.70
2018-10-01T22:39:40.117Z,8.80
2018-10-01T22:42:07.829Z,8.70
2018-10-01T22:44:35.535Z,8.70
2018-10-01T22:47:03.226Z,8.70
2018-10-01T22:49:30.877Z,8.80
2018-10-01T22:51:58.636Z,8.70
2018-10-01T22:54:26.339Z,8.80
2018-10-01T22:56:53.956Z,8.70
2018-10-01T22:59:21.574Z,8.70
2018-10-01T23:01:49.232Z,8.70
2018-10-01T23:04:16.847Z,8.70
2018-10-01T23:06:44.417Z,8.70
2018-10-01T23:09:12.038Z,8.70
2018-10-01T23:11:39.701Z,8.70
2018-10-01T23:14:07.333Z,8.80
2018-10-01T23:16:34.977Z,8.70
2018-10-01T23:19:02.715Z,8.70
2018-10-01T23:21:30.485Z,8.70
2018-10-01T23:23:58.166Z,8.70
2018-10-01T23:26:25.849Z,8.70
2018-10-01T23:28:53.623Z,8.60
2018-10-01T23:31:21.359Z,8.60
2018-10-01T23:33:49.023Z,8.60
2018-10-01T23:36:16.633Z,8.60
2018-10-01T23:38:44.665Z,8.50
2018-10-01T23:41:12.357Z,8.50
2018-10-01T23:43:39.984Z,8.30
2018-10-01T23:46:07.661Z,8.30
2018-10-01T23:48:35.333Z,8.40
2018-10-01T23:51:03.019Z,8.40
2018-10-01T23:53:30.676Z,8.40
2018-10-01T23:55:58.310Z,8.40
2018-10-01T23:58:26.008Z,8.50
